Brak ostrzeżeń pogodowych   -   Brak ostrzeżeń pogodowych

Raporty Pogodowe z Lotnisk

 

EPKK - Krakow/Balice, Poland
Odległość od stacji: Zd 81km
Aktualizacja: 25/04/2019 12:30
Małe zachmurzenie
Małe zachmurzenie
 Wiatr z Pd
Wiatr: Pd 13 km/h
Temperatura: 24°C
Punkt Rosy: 8°C
Wilgotność Względna: 36%
Ciśnienie Względne: 1014 hPa
Chmury: Małe zachmurzenie
Widoczność: 10 km
Szczegóły chmur: Małe zachmurzenie 1615 m
2019/04/25 10:30 EPKK 251030Z 19007KT 110V220 9999 FEW053 24/08 Q1014
EPRZ - Rzeszow/Jasionka, Poland
Odległość od stacji: Ws 81km
Aktualizacja: 25/04/2019 12:30
Bezchmurnie
Bezchmurnie
 Wiatr z Pd
Wiatr: Pd 30 km/h
Temperatura: 23°C
Punkt Rosy: 9°C
Wilgotność Względna: 41%
Ciśnienie Względne: 1016 hPa
Podsumowanie: Bezchmurnie
Widoczność: większa niż 10 km
2019/04/25 10:30 EPRZ 251030Z 19016KT 150V220 CAVOK 23/09 Q1016
 
EPKT - Katowice/Pyrzowice, Poland
Odległość od stacji: ZdPnZd 141km
Aktualizacja: 25/04/2019 12:30
Małe zachmurzenie
Małe zachmurzenie
 Wiatr z ZdPdZa
Wiatr: ZdPdZa 22 km/h
Temperatura: 21°C
Punkt Rosy: 9°C
Wilgotność Względna: 46%
Ciśnienie Względne: 1014 hPa
Chmury: Małe zachmurzenie
Widoczność: 10 km
Szczegóły chmur: Małe zachmurzenie 1494 m
2019/04/25 10:30 EPKT 251030Z 24012KT 200V280 9999 FEW049 21/09 Q1014
EPWA - Warsaw/Okecie, Poland
Odległość od stacji: Pn 240km
Aktualizacja: 25/04/2019 12:30
Bezchmurnie
Bezchmurnie
 Wiatr z PdWs
Wiatr: PdWs 20 km/h
Temperatura: 23°C
Punkt Rosy: 10°C
Wilgotność Względna: 44%
Ciśnienie Względne: 1015 hPa
Podsumowanie: Bezchmurnie
Widoczność: większa niż 10 km
2019/04/25 10:30 EPWA 251030Z 13011KT 100V170 CAVOK 23/10 Q1015 NOSIG
 
EPLL - Lodz/Lublinek, Poland
Odległość od stacji: PnPnZd 218km
Aktualizacja: 25/04/2019 12:30
Bezchmurnie
Bezchmurnie
 Wiatr z PdPdZd
Wiatr: PdPdZd 15 km/h
Temperatura: 23°C
Punkt Rosy: 10°C
Wilgotność Względna: 44%
Ciśnienie Względne: 1013 hPa
Podsumowanie: Bezchmurnie
Widoczność: większa niż 10 km
2019/04/25 10:30 EPLL 251030Z 20008KT 130V240 CAVOK 23/10 Q1013
EPWR - Wroclaw/Strachowice, Poland
Odległość od stacji: ZdPnZd 311km
Aktualizacja: 25/04/2019 12:30
Bezchmurnie
Bezchmurnie
 Wiatr z PnZd
Wiatr: PnZd 13 km/h
Temperatura: 23°C
Punkt Rosy: 10°C
Wilgotność Względna: 44%
Ciśnienie Względne: 1013 hPa
Podsumowanie: Bezchmurnie
Widoczność: większa niż 10 km
2019/04/25 10:30 EPWR 251030Z 32007KT 280V340 CAVOK 23/10 Q1013
 
EPGD - Gdansk/Rebiechowo, Poland
Odległość od stacji: PnZd 553km
Aktualizacja: 25/04/2019 12:30
Małe zachmurzenie
Małe zachmurzenie
 Wiatr z PdPdWs
Wiatr: PdPdWs 26 km/h
Temperatura: 23°C
Punkt Rosy: 10°C
Wilgotność Względna: 44%
Ciśnienie Względne: 1013 hPa
Chmury: Małe zachmurzenie
Widoczność: 10 km
Szczegóły chmur: Małe zachmurzenie 1311 m
2019/04/25 10:30 EPGD 251030Z 16014KT 140V200 9999 FEW043 23/10 Q1013
EPSC - Szczecin/Goleniow, Poland
Odległość od stacji: ZdPnZd 635km
Aktualizacja: 25/04/2019 12:30
Bezchmurnie
Bezchmurnie
 Wiatr z varies
Wiatr: varies 7 km/h
Temperatura: 21°C
Punkt Rosy: 12°C
Wilgotność Względna: 57%
Ciśnienie Względne: 1011 hPa
Podsumowanie: Bezchmurnie
Widoczność: większa niż 10 km
2019/04/25 10:30 EPSC 251030Z VRB04KT CAVOK 21/12 Q1011